N21 EFKU-EFTP
Flight info
| Callsign | N21 |
|---|---|
| Flight time | 0h 40m |
| Altitude | 14000 |
| Route | NISPO DCT ARBEV |
| Aircraft | C295/M-SDFGHIRY/S |
Departure
| Time | 2026-05-06 20:30 |
|---|---|
| Airport | Kuopio Airport (EFKU) |
Arrival
| Time | 2026-05-06 21:10 |
|---|---|
| Airport | Tampere-Pirkkala Airport (EFTP) |
| Time | Latitude | Longitude | Altitude | Speed | Heading |
|---|---|---|---|---|---|
| 2026-05-06 20:16 | 63.00360 | 27.79094 | 316 ft | 0 kts | 68° |
| 2026-05-06 20:24 | 63.00361 | 27.79095 | 316 ft | 1 kts | 68° |
| 2026-05-06 20:24 | 63.00372 | 27.79119 | 315 ft | 3 kts | 6° |
| 2026-05-06 20:24 | 63.00401 | 27.79110 | 316 ft | 5 kts | 344° |
| 2026-05-06 20:24 | 63.00436 | 27.79082 | 315 ft | 6 kts | 339° |
| 2026-05-06 20:25 | 63.00478 | 27.79080 | 314 ft | 7 kts | 24° |
| 2026-05-06 20:25 | 63.00523 | 27.79146 | 316 ft | 8 kts | 38° |
| 2026-05-06 20:25 | 63.00555 | 27.79201 | 315 ft | 9 kts | 38° |
| 2026-05-06 20:25 | 63.00608 | 27.79284 | 317 ft | 9 kts | 34° |
| 2026-05-06 20:26 | 63.00657 | 27.79353 | 321 ft | 8 kts | 21° |
| 2026-05-06 20:26 | 63.00706 | 27.79336 | 320 ft | 6 kts | 338° |
| 2026-05-06 20:26 | 63.00753 | 27.79291 | 322 ft | 5 kts | 336° |
| 2026-05-06 20:26 | 63.00775 | 27.79269 | 323 ft | 6 kts | 336° |
| 2026-05-06 20:27 | 63.00819 | 27.79231 | 324 ft | 7 kts | 338° |
| 2026-05-06 20:27 | 63.00864 | 27.79191 | 324 ft | 7 kts | 338° |
| 2026-05-06 20:27 | 63.00911 | 27.79150 | 326 ft | 7 kts | 338° |
| 2026-05-06 20:27 | 63.00964 | 27.79104 | 325 ft | 10 kts | 338° |
| 2026-05-06 20:28 | 63.01026 | 27.79049 | 324 ft | 9 kts | 338° |
| 2026-05-06 20:28 | 63.01075 | 27.79090 | 323 ft | 8 kts | 58° |
| 2026-05-06 20:28 | 63.01099 | 27.79220 | 325 ft | 10 kts | 68° |
| 2026-05-06 20:28 | 63.01117 | 27.79362 | 329 ft | 9 kts | 98° |
| 2026-05-06 20:29 | 63.01098 | 27.79420 | 328 ft | 0 kts | 153° |
| 2026-05-06 20:29 | 63.01013 | 27.79500 | 326 ft | 47 kts | 158° |
| 2026-05-06 20:29 | 63.00466 | 27.80007 | 317 ft | 118 kts | 157° |
| 2026-05-06 20:29 | 62.99707 | 27.80808 | 864 ft | 120 kts | 152° |
| 2026-05-06 20:30 | 62.98901 | 27.81724 | 1434 ft | 134 kts | 160° |
| 2026-05-06 20:30 | 62.96795 | 27.83541 | 2082 ft | 188 kts | 162° |
| 2026-05-06 20:30 | 62.95547 | 27.84569 | 2660 ft | 193 kts | 162° |
| 2026-05-06 20:31 | 62.94307 | 27.85652 | 3283 ft | 195 kts | 161° |
| 2026-05-06 20:31 | 62.93046 | 27.86765 | 3876 ft | 194 kts | 165° |
| 2026-05-06 20:31 | 62.91754 | 27.86691 | 4432 ft | 184 kts | 211° |
| 2026-05-06 20:31 | 62.90749 | 27.85021 | 5033 ft | 180 kts | 227° |
| 2026-05-06 20:32 | 62.89892 | 27.83017 | 5628 ft | 179 kts | 234° |
| 2026-05-06 20:32 | 62.89171 | 27.80835 | 6218 ft | 178 kts | 240° |
| 2026-05-06 20:32 | 62.88535 | 27.78502 | 6774 ft | 179 kts | 243° |
| 2026-05-06 20:32 | 62.87932 | 27.76091 | 7318 ft | 181 kts | 244° |
| 2026-05-06 20:33 | 62.87332 | 27.73644 | 7812 ft | 184 kts | 244° |
| 2026-05-06 20:33 | 62.86724 | 27.71169 | 8336 ft | 185 kts | 243° |
| 2026-05-06 20:33 | 62.86102 | 27.68676 | 8859 ft | 187 kts | 243° |
| 2026-05-06 20:33 | 62.85464 | 27.66160 | 9345 ft | 192 kts | 243° |
| 2026-05-06 20:34 | 62.84785 | 27.63486 | 9377 ft | 213 kts | 243° |
| 2026-05-06 20:34 | 62.84044 | 27.60547 | 9529 ft | 224 kts | 243° |
| 2026-05-06 20:34 | 62.83281 | 27.57554 | 9854 ft | 226 kts | 242° |
| 2026-05-06 20:34 | 62.82511 | 27.54559 | 10155 ft | 226 kts | 242° |
| 2026-05-06 20:35 | 62.81738 | 27.51560 | 10467 ft | 227 kts | 242° |
| 2026-05-06 20:35 | 62.80962 | 27.48559 | 10776 ft | 227 kts | 242° |
| 2026-05-06 20:35 | 62.80183 | 27.45555 | 11080 ft | 227 kts | 242° |
| 2026-05-06 20:35 | 62.79402 | 27.42539 | 11385 ft | 228 kts | 242° |
| 2026-05-06 20:36 | 62.78621 | 27.39525 | 11689 ft | 228 kts | 243° |
| 2026-05-06 20:36 | 62.77846 | 27.36546 | 11980 ft | 228 kts | 242° |
| 2026-05-06 20:36 | 62.77059 | 27.33523 | 12272 ft | 229 kts | 242° |
| 2026-05-06 20:36 | 62.76272 | 27.30498 | 12555 ft | 229 kts | 243° |
| 2026-05-06 20:37 | 62.75484 | 27.27478 | 12835 ft | 229 kts | 243° |
| 2026-05-06 20:37 | 62.74689 | 27.24437 | 13108 ft | 230 kts | 243° |
| 2026-05-06 20:37 | 62.73895 | 27.21404 | 13387 ft | 230 kts | 242° |
| 2026-05-06 20:37 | 62.73098 | 27.18369 | 13655 ft | 231 kts | 243° |
| 2026-05-06 20:38 | 62.72308 | 27.15358 | 13915 ft | 231 kts | 243° |
| 2026-05-06 20:38 | 62.71511 | 27.12324 | 14157 ft | 230 kts | 243° |
| 2026-05-06 20:38 | 62.70558 | 27.09508 | 14379 ft | 232 kts | 232° |
| 2026-05-06 20:38 | 62.69455 | 27.06920 | 14587 ft | 233 kts | 231° |
| 2026-05-06 20:39 | 62.68345 | 27.04340 | 14786 ft | 232 kts | 233° |
| 2026-05-06 20:39 | 62.67279 | 27.01756 | 15108 ft | 227 kts | 234° |
| 2026-05-06 20:39 | 62.66250 | 26.99157 | 15327 ft | 226 kts | 235° |
| 2026-05-06 20:39 | 62.65244 | 26.96583 | 15536 ft | 226 kts | 235° |
| 2026-05-06 20:40 | 62.64212 | 26.93957 | 15744 ft | 225 kts | 236° |
| 2026-05-06 20:40 | 62.63207 | 26.91403 | 15933 ft | 225 kts | 236° |
| 2026-05-06 20:40 | 62.62188 | 26.88817 | 16132 ft | 225 kts | 236° |
| 2026-05-06 20:40 | 62.61168 | 26.86236 | 16301 ft | 224 kts | 236° |
| 2026-05-06 20:41 | 62.60151 | 26.83664 | 16476 ft | 224 kts | 236° |
| 2026-05-06 20:41 | 62.59130 | 26.81088 | 16632 ft | 224 kts | 237° |
| 2026-05-06 20:41 | 62.58112 | 26.78521 | 16781 ft | 224 kts | 237° |
| 2026-05-06 20:41 | 62.57110 | 26.75996 | 16931 ft | 224 kts | 237° |
| 2026-05-06 20:42 | 62.56094 | 26.73440 | 17067 ft | 223 kts | 237° |
| 2026-05-06 20:42 | 62.55080 | 26.70880 | 17216 ft | 224 kts | 237° |
| 2026-05-06 20:42 | 62.54059 | 26.68320 | 17347 ft | 223 kts | 237° |
| 2026-05-06 20:42 | 62.53037 | 26.65750 | 17434 ft | 226 kts | 237° |
| 2026-05-06 20:43 | 62.52008 | 26.63164 | 17534 ft | 226 kts | 237° |
| 2026-05-06 20:43 | 62.50988 | 26.60614 | 17645 ft | 226 kts | 237° |
| 2026-05-06 20:43 | 62.49958 | 26.58031 | 17743 ft | 226 kts | 237° |
| 2026-05-06 20:43 | 62.48927 | 26.55460 | 17838 ft | 226 kts | 237° |
| 2026-05-06 20:44 | 62.47898 | 26.52883 | 17941 ft | 226 kts | 238° |
| 2026-05-06 20:44 | 62.46865 | 26.50312 | 18044 ft | 226 kts | 238° |
| 2026-05-06 20:44 | 62.45836 | 26.47746 | 18146 ft | 225 kts | 237° |
| 2026-05-06 20:44 | 62.44816 | 26.45199 | 18273 ft | 223 kts | 237° |
| 2026-05-06 20:45 | 62.43799 | 26.42679 | 18359 ft | 222 kts | 237° |
| 2026-05-06 20:45 | 62.42797 | 26.40197 | 18426 ft | 222 kts | 237° |
| 2026-05-06 20:45 | 62.41781 | 26.37673 | 18494 ft | 222 kts | 237° |
| 2026-05-06 20:45 | 62.40765 | 26.35160 | 18562 ft | 222 kts | 237° |
| 2026-05-06 20:46 | 62.39751 | 26.32643 | 18628 ft | 222 kts | 237° |
| 2026-05-06 20:46 | 62.38735 | 26.30135 | 18683 ft | 222 kts | 237° |
| 2026-05-06 20:46 | 62.37719 | 26.27624 | 18733 ft | 222 kts | 237° |
| 2026-05-06 20:46 | 62.36700 | 26.25111 | 18785 ft | 222 kts | 237° |
| 2026-05-06 20:47 | 62.35683 | 26.22607 | 18821 ft | 222 kts | 237° |
| 2026-05-06 20:47 | 62.34683 | 26.20131 | 18857 ft | 222 kts | 237° |
| 2026-05-06 20:47 | 62.33664 | 26.17632 | 18958 ft | 220 kts | 236° |
| 2026-05-06 20:47 | 62.32653 | 26.15152 | 19037 ft | 220 kts | 236° |
| 2026-05-06 20:48 | 62.31640 | 26.12672 | 19067 ft | 221 kts | 236° |
| 2026-05-06 20:48 | 62.30616 | 26.10160 | 18972 ft | 226 kts | 236° |
| 2026-05-06 20:48 | 62.29573 | 26.07591 | 18875 ft | 230 kts | 236° |
| 2026-05-06 20:48 | 62.28508 | 26.04981 | 18781 ft | 234 kts | 236° |
| 2026-05-06 20:49 | 62.27426 | 26.02335 | 18686 ft | 237 kts | 236° |
| 2026-05-06 20:49 | 62.26335 | 25.99669 | 18590 ft | 239 kts | 236° |
| 2026-05-06 20:49 | 62.25244 | 25.97003 | 18489 ft | 243 kts | 236° |
| 2026-05-06 20:49 | 62.24117 | 25.94266 | 18355 ft | 247 kts | 236° |
| 2026-05-06 20:50 | 62.22980 | 25.91494 | 18162 ft | 248 kts | 236° |
| 2026-05-06 20:50 | 62.21830 | 25.88690 | 17961 ft | 250 kts | 235° |
| 2026-05-06 20:50 | 62.20675 | 25.85883 | 17770 ft | 252 kts | 235° |
| 2026-05-06 20:50 | 62.19506 | 25.83058 | 17558 ft | 253 kts | 235° |
| 2026-05-06 20:51 | 62.18337 | 25.80212 | 17392 ft | 254 kts | 235° |
| 2026-05-06 20:51 | 62.17179 | 25.77402 | 17231 ft | 255 kts | 234° |
| 2026-05-06 20:51 | 62.15997 | 25.74552 | 17069 ft | 256 kts | 234° |
| 2026-05-06 20:51 | 62.14810 | 25.71699 | 16907 ft | 258 kts | 234° |
| 2026-05-06 20:52 | 62.13615 | 25.68820 | 16741 ft | 259 kts | 234° |
| 2026-05-06 20:52 | 62.12399 | 25.65963 | 16588 ft | 258 kts | 231° |
| 2026-05-06 20:52 | 62.11202 | 25.63158 | 16428 ft | 253 kts | 234° |
| 2026-05-06 20:52 | 62.10055 | 25.60284 | 16265 ft | 256 kts | 235° |
| 2026-05-06 20:53 | 62.08895 | 25.57370 | 16123 ft | 259 kts | 234° |
| 2026-05-06 20:53 | 62.07705 | 25.54469 | 15993 ft | 261 kts | 233° |
| 2026-05-06 20:53 | 62.06495 | 25.51566 | 15853 ft | 263 kts | 233° |
| 2026-05-06 20:53 | 62.05277 | 25.48652 | 15731 ft | 261 kts | 233° |
| 2026-05-06 20:54 | 62.04087 | 25.45817 | 15573 ft | 258 kts | 233° |
| 2026-05-06 20:54 | 62.02890 | 25.42974 | 15426 ft | 257 kts | 233° |
| 2026-05-06 20:54 | 62.01700 | 25.40141 | 15268 ft | 256 kts | 233° |
| 2026-05-06 20:54 | 62.00505 | 25.37315 | 15087 ft | 256 kts | 233° |
| 2026-05-06 20:55 | 61.99316 | 25.34489 | 14926 ft | 255 kts | 233° |
| 2026-05-06 20:55 | 61.98140 | 25.31703 | 14782 ft | 255 kts | 232° |
| 2026-05-06 20:55 | 61.96952 | 25.28894 | 14636 ft | 256 kts | 233° |
| 2026-05-06 20:55 | 61.95761 | 25.26079 | 14481 ft | 256 kts | 233° |
| 2026-05-06 20:56 | 61.94572 | 25.23269 | 14334 ft | 256 kts | 232° |
| 2026-05-06 20:56 | 61.93378 | 25.20454 | 14184 ft | 257 kts | 232° |
| 2026-05-06 20:56 | 61.92181 | 25.17636 | 14035 ft | 257 kts | 232° |
| 2026-05-06 20:56 | 61.90981 | 25.14812 | 13884 ft | 258 kts | 232° |
| 2026-05-06 20:57 | 61.89777 | 25.11990 | 13723 ft | 258 kts | 232° |
| 2026-05-06 20:57 | 61.88571 | 25.09168 | 13572 ft | 258 kts | 231° |
| 2026-05-06 20:57 | 61.87365 | 25.06337 | 13398 ft | 259 kts | 231° |
| 2026-05-06 20:57 | 61.86154 | 25.03502 | 13228 ft | 259 kts | 231° |
| 2026-05-06 20:58 | 61.84939 | 25.00668 | 13060 ft | 260 kts | 231° |
| 2026-05-06 20:58 | 61.83725 | 24.97833 | 12896 ft | 260 kts | 231° |
| 2026-05-06 20:58 | 61.82519 | 24.95026 | 12730 ft | 261 kts | 231° |
| 2026-05-06 20:58 | 61.81299 | 24.92184 | 12569 ft | 261 kts | 231° |
| 2026-05-06 20:59 | 61.80074 | 24.89342 | 12408 ft | 261 kts | 231° |
| 2026-05-06 20:59 | 61.78851 | 24.86502 | 12231 ft | 262 kts | 231° |
| 2026-05-06 20:59 | 61.77623 | 24.83659 | 12064 ft | 262 kts | 231° |
| 2026-05-06 20:59 | 61.76392 | 24.80812 | 11902 ft | 262 kts | 231° |
| 2026-05-06 21:00 | 61.75164 | 24.77974 | 11749 ft | 262 kts | 230° |
| 2026-05-06 21:00 | 61.73938 | 24.75141 | 11640 ft | 261 kts | 230° |
| 2026-05-06 21:00 | 61.72715 | 24.72320 | 11532 ft | 260 kts | 230° |
| 2026-05-06 21:00 | 61.71511 | 24.69553 | 11430 ft | 259 kts | 230° |
| 2026-05-06 21:01 | 61.70293 | 24.66750 | 11331 ft | 258 kts | 230° |
| 2026-05-06 21:01 | 61.69073 | 24.63952 | 11220 ft | 258 kts | 230° |
| 2026-05-06 21:01 | 61.67854 | 24.61151 | 11123 ft | 258 kts | 230° |
| 2026-05-06 21:01 | 61.66639 | 24.58367 | 11022 ft | 258 kts | 230° |
| 2026-05-06 21:02 | 61.65435 | 24.55614 | 10920 ft | 258 kts | 230° |
| 2026-05-06 21:02 | 61.64221 | 24.52836 | 10816 ft | 258 kts | 230° |
| 2026-05-06 21:02 | 61.63002 | 24.50061 | 10718 ft | 258 kts | 230° |
| 2026-05-06 21:02 | 61.61954 | 24.47066 | 10621 ft | 254 kts | 243° |
| 2026-05-06 21:03 | 61.61176 | 24.43709 | 10512 ft | 255 kts | 246° |
| 2026-05-06 21:03 | 61.60437 | 24.40313 | 10406 ft | 256 kts | 246° |
| 2026-05-06 21:03 | 61.59676 | 24.36924 | 10025 ft | 257 kts | 245° |
| 2026-05-06 21:03 | 61.58869 | 24.33569 | 9557 ft | 257 kts | 244° |
| 2026-05-06 21:04 | 61.58048 | 24.30223 | 9091 ft | 257 kts | 244° |
| 2026-05-06 21:04 | 61.57227 | 24.26887 | 8614 ft | 257 kts | 244° |
| 2026-05-06 21:04 | 61.56419 | 24.23591 | 8160 ft | 256 kts | 244° |
| 2026-05-06 21:04 | 61.55606 | 24.20280 | 7712 ft | 255 kts | 243° |
| 2026-05-06 21:05 | 61.54793 | 24.16972 | 7277 ft | 254 kts | 244° |
| 2026-05-06 21:05 | 61.53987 | 24.13691 | 6823 ft | 252 kts | 244° |
| 2026-05-06 21:05 | 61.53186 | 24.10429 | 6360 ft | 251 kts | 243° |
| 2026-05-06 21:05 | 61.52390 | 24.07192 | 5873 ft | 249 kts | 243° |
| 2026-05-06 21:06 | 61.51596 | 24.03967 | 5341 ft | 249 kts | 243° |
| 2026-05-06 21:06 | 61.50804 | 24.00749 | 4816 ft | 248 kts | 243° |
| 2026-05-06 21:06 | 61.50020 | 23.97553 | 4286 ft | 245 kts | 243° |
| 2026-05-06 21:06 | 61.49246 | 23.94420 | 3866 ft | 239 kts | 243° |
| 2026-05-06 21:07 | 61.48488 | 23.91374 | 3493 ft | 233 kts | 244° |
| 2026-05-06 21:07 | 61.47806 | 23.88349 | 3165 ft | 227 kts | 246° |
| 2026-05-06 21:07 | 61.47156 | 23.85428 | 2855 ft | 223 kts | 245° |
| 2026-05-06 21:07 | 61.46484 | 23.82566 | 2541 ft | 216 kts | 245° |
| 2026-05-06 21:08 | 61.45844 | 23.79767 | 2240 ft | 211 kts | 245° |
| 2026-05-06 21:08 | 61.45223 | 23.77037 | 1948 ft | 200 kts | 245° |
| 2026-05-06 21:08 | 61.44659 | 23.74571 | 1690 ft | 177 kts | 245° |
| 2026-05-06 21:08 | 61.44149 | 23.72368 | 1448 ft | 158 kts | 245° |
| 2026-05-06 21:09 | 61.43702 | 23.70401 | 1219 ft | 140 kts | 245° |
| 2026-05-06 21:09 | 61.43324 | 23.68743 | 1035 ft | 114 kts | 244° |
| 2026-05-06 21:09 | 61.43008 | 23.67364 | 892 ft | 105 kts | 244° |
| 2026-05-06 21:09 | 61.42686 | 23.65991 | 793 ft | 107 kts | 243° |
| 2026-05-06 21:10 | 61.42361 | 23.64591 | 630 ft | 107 kts | 244° |
| 2026-05-06 21:10 | 61.42047 | 23.63204 | 456 ft | 103 kts | 243° |
| 2026-05-06 21:10 | 61.41772 | 23.62007 | 371 ft | 38 kts | 246° |
| 2026-05-06 21:10 | 61.41745 | 23.61883 | 375 ft | 15 kts | 245° |
| 2026-05-06 21:11 | 61.41706 | 23.61710 | 378 ft | 11 kts | 245° |
| 2026-05-06 21:11 | 61.41676 | 23.61610 | 382 ft | 6 kts | 208° |
| 2026-05-06 21:11 | 61.41642 | 23.61654 | 381 ft | 8 kts | 101° |
| 2026-05-06 21:11 | 61.41632 | 23.61780 | 378 ft | 10 kts | 99° |
| 2026-05-06 21:12 | 61.41619 | 23.61932 | 374 ft | 12 kts | 100° |
| 2026-05-06 21:12 | 61.41602 | 23.62106 | 371 ft | 12 kts | 102° |
| 2026-05-06 21:12 | 61.41592 | 23.62209 | 372 ft | 10 kts | 99° |
| 2026-05-06 21:12 | 61.41583 | 23.62336 | 373 ft | 8 kts | 98° |
| 2026-05-06 21:13 | 61.41575 | 23.62451 | 375 ft | 5 kts | 100° |
| 2026-05-06 21:13 | 61.41569 | 23.62493 | 377 ft | 3 kts | 110° |
| 2026-05-06 21:13 | 61.41516 | 23.62577 | 382 ft | 12 kts | 177° |
| 2026-05-06 21:13 | 61.41445 | 23.62533 | 383 ft | 10 kts | 202° |
| 2026-05-06 21:14 | 61.41378 | 23.62472 | 382 ft | 11 kts | 203° |
| 2026-05-06 21:14 | 61.41311 | 23.62413 | 382 ft | 10 kts | 202° |
| 2026-05-06 21:14 | 61.41254 | 23.62365 | 383 ft | 3 kts | 200° |
| 2026-05-06 21:14 | 61.41231 | 23.62366 | 384 ft | 3 kts | 146° |
| 2026-05-06 21:15 | 61.41231 | 23.62440 | 382 ft | 7 kts | 63° |
| 2026-05-06 21:15 | 61.41228 | 23.62499 | 382 ft | 0 kts | 109° |